sensor_id;sensor_type;location;lat;lon;timestamp;temperature;humidity
6291;DHT22;3178;48.730;8.990;2023-03-03T00:00:47;2.50;99.90
6291;DHT22;3178;48.730;8.990;2023-03-03T00:03:16;2.50;99.90
6291;DHT22;3178;48.730;8.990;2023-03-03T00:05:43;2.60;99.90
6291;DHT22;3178;48.730;8.990;2023-03-03T00:08:09;2.60;99.90
6291;DHT22;3178;48.730;8.990;2023-03-03T00:10:35;2.60;99.90
6291;DHT22;3178;48.730;8.990;2023-03-03T00:13:01;2.60;99.90
6291;DHT22;3178;48.730;8.990;2023-03-03T00:15:27;2.60;99.90
6291;DHT22;3178;48.730;8.990;2023-03-03T00:17:53;2.60;99.90
6291;DHT22;3178;48.730;8.990;2023-03-03T00:20:30;2.60;99.90
6291;DHT22;3178;48.730;8.990;2023-03-03T00:25:58;2.60;99.90
6291;DHT22;3178;48.730;8.990;2023-03-03T00:30:53;2.50;99.90
6291;DHT22;3178;48.730;8.990;2023-03-03T00:33:31;2.50;99.90
6291;DHT22;3178;48.730;8.990;2023-03-03T00:38:41;2.60;99.90
6291;DHT22;3178;48.730;8.990;2023-03-03T00:41:33;2.50;99.90
6291;DHT22;3178;48.730;8.990;2023-03-03T00:43:59;2.50;99.90
6291;DHT22;3178;48.730;8.990;2023-03-03T00:46:25;2.50;99.90
6291;DHT22;3178;48.730;8.990;2023-03-03T00:48:50;2.50;99.90
6291;DHT22;3178;48.730;8.990;2023-03-03T00:51:25;2.40;99.90
6291;DHT22;3178;48.730;8.990;2023-03-03T00:53:52;2.40;99.90
6291;DHT22;3178;48.730;8.990;2023-03-03T00:56:18;2.40;99.90
6291;DHT22;3178;48.730;8.990;2023-03-03T00:58:43;2.30;99.90
6291;DHT22;3178;48.730;8.990;2023-03-03T01:01:10;2.30;99.90
6291;DHT22;3178;48.730;8.990;2023-03-03T01:03:36;2.20;99.90
6291;DHT22;3178;48.730;8.990;2023-03-03T01:06:01;2.20;99.90
6291;DHT22;3178;48.730;8.990;2023-03-03T01:08:27;2.20;99.90
6291;DHT22;3178;48.730;8.990;2023-03-03T01:10:56;2.10;99.90
6291;DHT22;3178;48.730;8.990;2023-03-03T01:13:26;2.10;99.90
6291;DHT22;3178;48.730;8.990;2023-03-03T01:15:52;2.10;99.90
6291;DHT22;3178;48.730;8.990;2023-03-03T01:18:18;2.00;99.90
6291;DHT22;3178;48.730;8.990;2023-03-03T01:20:44;2.00;99.90
6291;DHT22;3178;48.730;8.990;2023-03-03T01:23:10;2.00;99.90
6291;DHT22;3178;48.730;8.990;2023-03-03T01:25:36;1.90;99.90
6291;DHT22;3178;48.730;8.990;2023-03-03T01:28:01;1.90;99.90
6291;DHT22;3178;48.730;8.990;2023-03-03T01:30:27;1.80;99.90
6291;DHT22;3178;48.730;8.990;2023-03-03T01:32:53;1.80;99.90
6291;DHT22;3178;48.730;8.990;2023-03-03T01:35:19;1.70;99.90
6291;DHT22;3178;48.730;8.990;2023-03-03T01:37:45;1.70;99.90
6291;DHT22;3178;48.730;8.990;2023-03-03T01:40:20;1.60;99.90
6291;DHT22;3178;48.730;8.990;2023-03-03T01:42:46;1.60;99.90
6291;DHT22;3178;48.730;8.990;2023-03-03T01:45:26;1.50;99.90
6291;DHT22;3178;48.730;8.990;2023-03-03T01:47:58;1.50;99.90
6291;DHT22;3178;48.730;8.990;2023-03-03T01:50:39;1.50;99.90
6291;DHT22;3178;48.730;8.990;2023-03-03T01:53:11;1.40;99.90
6291;DHT22;3178;48.730;8.990;2023-03-03T01:55:39;1.40;99.90
6291;DHT22;3178;48.730;8.990;2023-03-03T01:58:15;1.40;99.90
6291;DHT22;3178;48.730;8.990;2023-03-03T02:00:45;1.40;99.90
6291;DHT22;3178;48.730;8.990;2023-03-03T02:03:15;1.40;99.90
6291;DHT22;3178;48.730;8.990;2023-03-03T02:05:41;1.30;99.90
6291;DHT22;3178;48.730;8.990;2023-03-03T02:08:09;1.30;99.90
6291;DHT22;3178;48.730;8.990;2023-03-03T02:10:36;1.30;99.90
6291;DHT22;3178;48.730;8.990;2023-03-03T02:13:02;1.30;99.90
6291;DHT22;3178;48.730;8.990;2023-03-03T02:15:31;1.20;99.90
6291;DHT22;3178;48.730;8.990;2023-03-03T02:18:01;1.20;99.90
6291;DHT22;3178;48.730;8.990;2023-03-03T02:26:21;1.20;99.90
6291;DHT22;3178;48.730;8.990;2023-03-03T02:28:47;1.10;99.90
6291;DHT22;3178;48.730;8.990;2023-03-03T02:31:16;1.10;99.90
6291;DHT22;3178;48.730;8.990;2023-03-03T02:33:46;1.10;99.90
6291;DHT22;3178;48.730;8.990;2023-03-03T02:36:24;1.20;99.90
6291;DHT22;3178;48.730;8.990;2023-03-03T02:38:52;1.10;99.90
6291;DHT22;3178;48.730;8.990;2023-03-03T02:44:00;1.00;99.90
6291;DHT22;3178;48.730;8.990;2023-03-03T02:46:27;1.00;99.90
6291;DHT22;3178;48.730;8.990;2023-03-03T02:48:53;0.90;99.90
6291;DHT22;3178;48.730;8.990;2023-03-03T02:51:18;0.90;99.90
6291;DHT22;3178;48.730;8.990;2023-03-03T02:53:44;0.90;99.90
6291;DHT22;3178;48.730;8.990;2023-03-03T02:56:09;0.90;99.90
6291;DHT22;3178;48.730;8.990;2023-03-03T02:58:36;0.90;99.90
6291;DHT22;3178;48.730;8.990;2023-03-03T03:01:03;0.90;99.90
6291;DHT22;3178;48.730;8.990;2023-03-03T03:03:28;0.90;99.90
6291;DHT22;3178;48.730;8.990;2023-03-03T03:05:54;0.90;99.90
6291;DHT22;3178;48.730;8.990;2023-03-03T03:08:19;0.90;99.90
6291;DHT22;3178;48.730;8.990;2023-03-03T03:10:45;0.90;99.90
6291;DHT22;3178;48.730;8.990;2023-03-03T03:13:11;0.90;99.90
6291;DHT22;3178;48.730;8.990;2023-03-03T03:15:36;1.00;99.90
6291;DHT22;3178;48.730;8.990;2023-03-03T03:18:02;1.00;99.90
6291;DHT22;3178;48.730;8.990;2023-03-03T03:20:28;1.00;99.90
6291;DHT22;3178;48.730;8.990;2023-03-03T03:22:53;1.10;99.90
6291;DHT22;3178;48.730;8.990;2023-03-03T03:25:19;1.10;99.90
6291;DHT22;3178;48.730;8.990;2023-03-03T03:27:45;1.10;99.90
6291;DHT22;3178;48.730;8.990;2023-03-03T03:30:10;1.10;99.90
6291;DHT22;3178;48.730;8.990;2023-03-03T03:32:36;1.20;99.90
6291;DHT22;3178;48.730;8.990;2023-03-03T03:35:01;1.20;99.90
6291;DHT22;3178;48.730;8.990;2023-03-03T03:37:27;1.20;99.90
6291;DHT22;3178;48.730;8.990;2023-03-03T03:39:53;1.30;99.90
6291;DHT22;3178;48.730;8.990;2023-03-03T03:42:18;1.30;99.90
6291;DHT22;3178;48.730;8.990;2023-03-03T03:44:44;1.30;99.90
6291;DHT22;3178;48.730;8.990;2023-03-03T03:47:10;1.30;99.90
6291;DHT22;3178;48.730;8.990;2023-03-03T03:49:35;1.30;99.90
6291;DHT22;3178;48.730;8.990;2023-03-03T03:52:01;1.40;99.90
6291;DHT22;3178;48.730;8.990;2023-03-03T03:54:26;1.40;99.90
6291;DHT22;3178;48.730;8.990;2023-03-03T03:56:52;1.40;99.90
6291;DHT22;3178;48.730;8.990;2023-03-03T03:59:19;1.50;99.90
6291;DHT22;3178;48.730;8.990;2023-03-03T04:01:44;1.50;99.90
6291;DHT22;3178;48.730;8.990;2023-03-03T04:04:10;1.50;99.90
6291;DHT22;3178;48.730;8.990;2023-03-03T04:06:36;1.50;99.90
6291;DHT22;3178;48.730;8.990;2023-03-03T04:09:02;1.60;99.90
6291;DHT22;3178;48.730;8.990;2023-03-03T04:11:27;1.60;99.90
6291;DHT22;3178;48.730;8.990;2023-03-03T04:13:53;1.60;99.90
6291;DHT22;3178;48.730;8.990;2023-03-03T04:16:18;1.70;99.90
6291;DHT22;3178;48.730;8.990;2023-03-03T04:18:44;1.70;99.90
6291;DHT22;3178;48.730;8.990;2023-03-03T04:21:14;1.70;99.90
6291;DHT22;3178;48.730;8.990;2023-03-03T04:23:39;1.70;99.90
6291;DHT22;3178;48.730;8.990;2023-03-03T04:26:05;1.80;99.90
6291;DHT22;3178;48.730;8.990;2023-03-03T04:28:31;1.80;99.90
6291;DHT22;3178;48.730;8.990;2023-03-03T04:30:56;1.80;99.90
6291;DHT22;3178;48.730;8.990;2023-03-03T04:33:22;1.80;99.90
6291;DHT22;3178;48.730;8.990;2023-03-03T04:35:47;1.70;99.90
6291;DHT22;3178;48.730;8.990;2023-03-03T04:38:13;1.80;99.90
6291;DHT22;3178;48.730;8.990;2023-03-03T04:40:42;1.80;99.90
6291;DHT22;3178;48.730;8.990;2023-03-03T04:43:09;1.80;99.90
6291;DHT22;3178;48.730;8.990;2023-03-03T04:45:35;1.80;99.90
6291;DHT22;3178;48.730;8.990;2023-03-03T04:48:00;1.80;99.90
6291;DHT22;3178;48.730;8.990;2023-03-03T04:50:26;1.90;99.90
6291;DHT22;3178;48.730;8.990;2023-03-03T04:52:52;1.90;99.90
6291;DHT22;3178;48.730;8.990;2023-03-03T04:55:18;1.90;99.90
6291;DHT22;3178;48.730;8.990;2023-03-03T04:57:43;1.80;99.90
6291;DHT22;3178;48.730;8.990;2023-03-03T05:00:10;1.80;99.90
6291;DHT22;3178;48.730;8.990;2023-03-03T05:02:38;1.90;99.90
6291;DHT22;3178;48.730;8.990;2023-03-03T05:05:05;1.90;99.90
6291;DHT22;3178;48.730;8.990;2023-03-03T05:07:30;1.90;99.90
6291;DHT22;3178;48.730;8.990;2023-03-03T05:09:56;1.90;99.90
6291;DHT22;3178;48.730;8.990;2023-03-03T05:12:21;2.00;99.90
6291;DHT22;3178;48.730;8.990;2023-03-03T05:14:47;2.00;99.90
6291;DHT22;3178;48.730;8.990;2023-03-03T05:17:12;2.00;99.90
6291;DHT22;3178;48.730;8.990;2023-03-03T05:19:38;2.00;99.90
6291;DHT22;3178;48.730;8.990;2023-03-03T05:22:04;2.00;99.90
6291;DHT22;3178;48.730;8.990;2023-03-03T05:24:30;2.00;99.90
6291;DHT22;3178;48.730;8.990;2023-03-03T05:26:55;2.00;99.90
6291;DHT22;3178;48.730;8.990;2023-03-03T05:29:21;2.00;99.90
6291;DHT22;3178;48.730;8.990;2023-03-03T05:31:46;2.00;99.90
6291;DHT22;3178;48.730;8.990;2023-03-03T05:34:12;1.90;99.90
6291;DHT22;3178;48.730;8.990;2023-03-03T05:36:37;1.90;99.90
6291;DHT22;3178;48.730;8.990;2023-03-03T05:39:03;2.00;99.90
6291;DHT22;3178;48.730;8.990;2023-03-03T05:41:29;2.00;99.90
6291;DHT22;3178;48.730;8.990;2023-03-03T05:43:55;2.00;99.90
6291;DHT22;3178;48.730;8.990;2023-03-03T05:46:20;2.00;99.90
6291;DHT22;3178;48.730;8.990;2023-03-03T05:48:46;2.00;99.90
6291;DHT22;3178;48.730;8.990;2023-03-03T05:51:11;2.10;99.90
6291;DHT22;3178;48.730;8.990;2023-03-03T05:53:37;2.10;99.90
6291;DHT22;3178;48.730;8.990;2023-03-03T05:56:03;2.10;99.90
6291;DHT22;3178;48.730;8.990;2023-03-03T05:58:29;2.10;99.90
6291;DHT22;3178;48.730;8.990;2023-03-03T06:00:54;2.10;99.90
6291;DHT22;3178;48.730;8.990;2023-03-03T06:03:20;2.10;99.90
6291;DHT22;3178;48.730;8.990;2023-03-03T06:05:46;2.10;99.90
6291;DHT22;3178;48.730;8.990;2023-03-03T06:08:12;2.10;99.90
6291;DHT22;3178;48.730;8.990;2023-03-03T06:10:37;2.10;99.90
6291;DHT22;3178;48.730;8.990;2023-03-03T06:13:03;2.20;99.90
6291;DHT22;3178;48.730;8.990;2023-03-03T06:15:29;2.20;99.90
6291;DHT22;3178;48.730;8.990;2023-03-03T06:17:54;2.20;99.90
6291;DHT22;3178;48.730;8.990;2023-03-03T06:20:20;2.20;99.90
6291;DHT22;3178;48.730;8.990;2023-03-03T06:22:45;2.20;99.90
6291;DHT22;3178;48.730;8.990;2023-03-03T06:25:11;2.20;99.90
6291;DHT22;3178;48.730;8.990;2023-03-03T06:27:36;2.20;99.90
6291;DHT22;3178;48.730;8.990;2023-03-03T06:30:02;2.30;99.90
6291;DHT22;3178;48.730;8.990;2023-03-03T06:32:28;2.30;99.90
6291;DHT22;3178;48.730;8.990;2023-03-03T06:34:53;2.30;99.90
6291;DHT22;3178;48.730;8.990;2023-03-03T06:37:19;2.30;99.90
6291;DHT22;3178;48.730;8.990;2023-03-03T06:39:44;2.30;99.90
6291;DHT22;3178;48.730;8.990;2023-03-03T06:42:10;2.40;99.90
6291;DHT22;3178;48.730;8.990;2023-03-03T06:44:35;2.40;99.90
6291;DHT22;3178;48.730;8.990;2023-03-03T06:47:01;2.30;99.90
6291;DHT22;3178;48.730;8.990;2023-03-03T06:49:27;2.40;99.90
6291;DHT22;3178;48.730;8.990;2023-03-03T06:51:53;2.30;99.90
6291;DHT22;3178;48.730;8.990;2023-03-03T06:54:20;2.30;99.90
6291;DHT22;3178;48.730;8.990;2023-03-03T06:56:49;2.40;99.90
6291;DHT22;3178;48.730;8.990;2023-03-03T06:59:18;2.40;99.90
6291;DHT22;3178;48.730;8.990;2023-03-03T07:01:46;2.40;99.90
6291;DHT22;3178;48.730;8.990;2023-03-03T07:04:28;2.40;99.90
6291;DHT22;3178;48.730;8.990;2023-03-03T07:06:57;2.40;99.90
6291;DHT22;3178;48.730;8.990;2023-03-03T07:09:28;2.50;99.90
6291;DHT22;3178;48.730;8.990;2023-03-03T07:12:01;2.50;99.90
6291;DHT22;3178;48.730;8.990;2023-03-03T07:14:28;2.50;99.90
6291;DHT22;3178;48.730;8.990;2023-03-03T07:17:00;2.50;99.90
6291;DHT22;3178;48.730;8.990;2023-03-03T07:19:33;2.60;99.90
6291;DHT22;3178;48.730;8.990;2023-03-03T07:22:42;2.60;99.90
6291;DHT22;3178;48.730;8.990;2023-03-03T07:24:58;2.60;99.90
6291;DHT22;3178;48.730;8.990;2023-03-03T07:27:28;2.70;99.90
6291;DHT22;3178;48.730;8.990;2023-03-03T07:30:08;2.70;99.90
6291;DHT22;3178;48.730;8.990;2023-03-03T07:32:43;2.70;99.90
6291;DHT22;3178;48.730;8.990;2023-03-03T07:35:43;2.80;99.90
6291;DHT22;3178;48.730;8.990;2023-03-03T07:38:37;2.80;99.90
6291;DHT22;3178;48.730;8.990;2023-03-03T07:41:19;2.90;99.90
6291;DHT22;3178;48.730;8.990;2023-03-03T07:44:02;2.90;99.90
6291;DHT22;3178;48.730;8.990;2023-03-03T07:46:41;2.90;99.90
6291;DHT22;3178;48.730;8.990;2023-03-03T07:49:31;2.90;99.90
6291;DHT22;3178;48.730;8.990;2023-03-03T07:51:58;2.90;99.90
6291;DHT22;3178;48.730;8.990;2023-03-03T07:54:35;2.90;99.90
6291;DHT22;3178;48.730;8.990;2023-03-03T07:59:48;3.00;99.90
6291;DHT22;3178;48.730;8.990;2023-03-03T08:04:53;3.10;99.90
6291;DHT22;3178;48.730;8.990;2023-03-03T08:07:21;3.20;99.90
6291;DHT22;3178;48.730;8.990;2023-03-03T08:09:58;3.30;99.90
6291;DHT22;3178;48.730;8.990;2023-03-03T08:12:34;3.40;99.90
6291;DHT22;3178;48.730;8.990;2023-03-03T08:17:41;3.40;99.90
6291;DHT22;3178;48.730;8.990;2023-03-03T08:23:00;3.50;99.90
6291;DHT22;3178;48.730;8.990;2023-03-03T08:25:26;3.60;99.90
6291;DHT22;3178;48.730;8.990;2023-03-03T08:27:51;3.70;99.90
6291;DHT22;3178;48.730;8.990;2023-03-03T08:30:17;3.80;99.90
6291;DHT22;3178;48.730;8.990;2023-03-03T08:32:42;3.80;99.90
6291;DHT22;3178;48.730;8.990;2023-03-03T08:35:08;3.90;99.90
6291;DHT22;3178;48.730;8.990;2023-03-03T08:37:34;4.00;99.90
6291;DHT22;3178;48.730;8.990;2023-03-03T08:39:59;4.20;99.90
6291;DHT22;3178;48.730;8.990;2023-03-03T08:42:25;4.50;99.90
6291;DHT22;3178;48.730;8.990;2023-03-03T08:44:50;4.90;99.90
6291;DHT22;3178;48.730;8.990;2023-03-03T08:47:16;5.30;99.90
6291;DHT22;3178;48.730;8.990;2023-03-03T08:49:41;5.70;99.90
6291;DHT22;3178;48.730;8.990;2023-03-03T08:52:07;6.10;99.90
6291;DHT22;3178;48.730;8.990;2023-03-03T08:54:32;6.50;99.90
6291;DHT22;3178;48.730;8.990;2023-03-03T08:56:58;6.80;99.90
6291;DHT22;3178;48.730;8.990;2023-03-03T08:59:23;7.10;99.90
6291;DHT22;3178;48.730;8.990;2023-03-03T09:01:49;7.30;99.90
6291;DHT22;3178;48.730;8.990;2023-03-03T09:04:14;7.40;99.90
6291;DHT22;3178;48.730;8.990;2023-03-03T09:06:40;7.60;99.90
6291;DHT22;3178;48.730;8.990;2023-03-03T09:09:05;7.90;99.90
6291;DHT22;3178;48.730;8.990;2023-03-03T09:11:32;8.20;99.90
6291;DHT22;3178;48.730;8.990;2023-03-03T09:14:13;8.40;99.90
6291;DHT22;3178;48.730;8.990;2023-03-03T09:16:58;8.60;99.90
6291;DHT22;3178;48.730;8.990;2023-03-03T09:19:27;8.80;99.90
6291;DHT22;3178;48.730;8.990;2023-03-03T09:21:56;8.90;99.90
6291;DHT22;3178;48.730;8.990;2023-03-03T09:24:28;9.10;99.90
6291;DHT22;3178;48.730;8.990;2023-03-03T09:26:55;9.40;99.90
6291;DHT22;3178;48.730;8.990;2023-03-03T09:29:25;9.40;99.90
6291;DHT22;3178;48.730;8.990;2023-03-03T09:31:58;9.50;99.90
6291;DHT22;3178;48.730;8.990;2023-03-03T09:34:36;9.70;99.90
6291;DHT22;3178;48.730;8.990;2023-03-03T09:37:20;10.00;99.90
6291;DHT22;3178;48.730;8.990;2023-03-03T09:39:51;10.30;99.90
6291;DHT22;3178;48.730;8.990;2023-03-03T09:48:24;10.70;99.90
6291;DHT22;3178;48.730;8.990;2023-03-03T09:51:18;11.10;99.90
6291;DHT22;3178;48.730;8.990;2023-03-03T09:54:00;11.50;99.90
6291;DHT22;3178;48.730;8.990;2023-03-03T09:56:36;11.70;99.90
6291;DHT22;3178;48.730;8.990;2023-03-03T10:05:13;12.20;97.20
6291;DHT22;3178;48.730;8.990;2023-03-03T10:08:32;12.10;97.80
6291;DHT22;3178;48.730;8.990;2023-03-03T10:18:38;11.90;96.00
6291;DHT22;3178;48.730;8.990;2023-03-03T10:23:54;11.70;97.10
6291;DHT22;3178;48.730;8.990;2023-03-03T10:37:06;11.10;97.00
6291;DHT22;3178;48.730;8.990;2023-03-03T10:39:48;11.30;97.90
6291;DHT22;3178;48.730;8.990;2023-03-03T10:48:29;11.40;97.60
6291;DHT22;3178;48.730;8.990;2023-03-03T10:53:51;11.60;97.80
6291;DHT22;3178;48.730;8.990;2023-03-03T10:56:52;11.90;96.80
6291;DHT22;3178;48.730;8.990;2023-03-03T10:59:45;12.10;97.60
6291;DHT22;3178;48.730;8.990;2023-03-03T11:02:36;12.20;95.80
6291;DHT22;3178;48.730;8.990;2023-03-03T11:07:45;12.30;95.60
6291;DHT22;3178;48.730;8.990;2023-03-03T11:13:20;12.70;95.70
6291;DHT22;3178;48.730;8.990;2023-03-03T11:18:22;12.90;94.60
6291;DHT22;3178;48.730;8.990;2023-03-03T11:20:54;13.10;96.30
6291;DHT22;3178;48.730;8.990;2023-03-03T11:23:51;13.50;93.60
6291;DHT22;3178;48.730;8.990;2023-03-03T11:29:01;13.40;92.80
6291;DHT22;3178;48.730;8.990;2023-03-03T11:31:54;13.30;92.60
6291;DHT22;3178;48.730;8.990;2023-03-03T11:34:33;13.20;92.90
6291;DHT22;3178;48.730;8.990;2023-03-03T11:37:08;13.30;91.80
6291;DHT22;3178;48.730;8.990;2023-03-03T11:39:36;13.00;91.00
6291;DHT22;3178;48.730;8.990;2023-03-03T11:44:47;12.40;91.90
6291;DHT22;3178;48.730;8.990;2023-03-03T11:47:26;12.10;92.40
6291;DHT22;3178;48.730;8.990;2023-03-03T11:50:01;11.90;92.60
6291;DHT22;3178;48.730;8.990;2023-03-03T11:55:28;11.60;92.50
6291;DHT22;3178;48.730;8.990;2023-03-03T11:58:27;11.40;93.50
6291;DHT22;3178;48.730;8.990;2023-03-03T12:04:13;11.20;92.60
6291;DHT22;3178;48.730;8.990;2023-03-03T12:12:35;10.90;94.20
6291;DHT22;3178;48.730;8.990;2023-03-03T12:15:24;10.90;94.40
6291;DHT22;3178;48.730;8.990;2023-03-03T12:20:50;11.10;93.40
6291;DHT22;3178;48.730;8.990;2023-03-03T12:23:34;11.00;92.70
6291;DHT22;3178;48.730;8.990;2023-03-03T12:26:24;11.00;93.20
6291;DHT22;3178;48.730;8.990;2023-03-03T12:28:57;10.90;93.60
6291;DHT22;3178;48.730;8.990;2023-03-03T12:44:33;11.30;94.60
6291;DHT22;3178;48.730;8.990;2023-03-03T12:47:15;11.60;93.20
6291;DHT22;3178;48.730;8.990;2023-03-03T13:06:57;14.50;90.30
6291;DHT22;3178;48.730;8.990;2023-03-03T13:12:29;15.10;84.10
6291;DHT22;3178;48.730;8.990;2023-03-03T13:15:10;15.40;82.70
6291;DHT22;3178;48.730;8.990;2023-03-03T13:17:58;15.60;81.30
6291;DHT22;3178;48.730;8.990;2023-03-03T13:20:48;15.90;80.00
6291;DHT22;3178;48.730;8.990;2023-03-03T13:23:39;15.90;80.10
6291;DHT22;3178;48.730;8.990;2023-03-03T13:26:15;16.30;79.80
6291;DHT22;3178;48.730;8.990;2023-03-03T13:32:08;16.40;77.80
6291;DHT22;3178;48.730;8.990;2023-03-03T13:37:31;16.90;76.20
6291;DHT22;3178;48.730;8.990;2023-03-03T13:42:40;17.20;74.30
6291;DHT22;3178;48.730;8.990;2023-03-03T13:45:24;17.30;72.00
6291;DHT22;3178;48.730;8.990;2023-03-03T13:50:30;17.10;70.50
6291;DHT22;3178;48.730;8.990;2023-03-03T13:56:07;16.80;72.50
6291;DHT22;3178;48.730;8.990;2023-03-03T14:06:29;17.50;69.00
6291;DHT22;3178;48.730;8.990;2023-03-03T14:12:13;17.40;70.00
6291;DHT22;3178;48.730;8.990;2023-03-03T14:20:32;17.30;67.90
6291;DHT22;3178;48.730;8.990;2023-03-03T14:26:08;17.00;67.60
6291;DHT22;3178;48.730;8.990;2023-03-03T14:28:44;17.00;69.00
6291;DHT22;3178;48.730;8.990;2023-03-03T14:31:17;17.20;68.60
6291;DHT22;3178;48.730;8.990;2023-03-03T14:36:32;16.80;67.90
6291;DHT22;3178;48.730;8.990;2023-03-03T14:39:00;16.70;66.80
6291;DHT22;3178;48.730;8.990;2023-03-03T14:41:40;16.60;66.70
6291;DHT22;3178;48.730;8.990;2023-03-03T14:44:28;16.30;67.00
6291;DHT22;3178;48.730;8.990;2023-03-03T14:47:11;15.50;68.60
6291;DHT22;3178;48.730;8.990;2023-03-03T14:49:41;15.10;68.60
6291;DHT22;3178;48.730;8.990;2023-03-03T14:54:47;14.00;72.60
6291;DHT22;3178;48.730;8.990;2023-03-03T14:57:18;13.90;71.50
6291;DHT22;3178;48.730;8.990;2023-03-03T14:59:56;13.60;72.10
6291;DHT22;3178;48.730;8.990;2023-03-03T15:02:30;13.30;73.30
6291;DHT22;3178;48.730;8.990;2023-03-03T15:05:19;13.00;75.20
6291;DHT22;3178;48.730;8.990;2023-03-03T15:07:48;12.70;75.40
6291;DHT22;3178;48.730;8.990;2023-03-03T15:10:35;12.60;76.80
6291;DHT22;3178;48.730;8.990;2023-03-03T15:15:56;12.40;76.20
6291;DHT22;3178;48.730;8.990;2023-03-03T15:18:26;12.30;76.60
6291;DHT22;3178;48.730;8.990;2023-03-03T15:23:50;12.00;78.90
6291;DHT22;3178;48.730;8.990;2023-03-03T15:26:50;11.80;78.70
6291;DHT22;3178;48.730;8.990;2023-03-03T15:29:19;11.80;80.30
6291;DHT22;3178;48.730;8.990;2023-03-03T15:34:38;11.70;79.70
6291;DHT22;3178;48.730;8.990;2023-03-03T15:40:02;11.40;80.90
6291;DHT22;3178;48.730;8.990;2023-03-03T15:42:34;11.30;81.20
6291;DHT22;3178;48.730;8.990;2023-03-03T15:54:14;10.90;83.80
6291;DHT22;3178;48.730;8.990;2023-03-03T16:02:19;10.50;83.50
6291;DHT22;3178;48.730;8.990;2023-03-03T16:04:58;10.40;84.30
6291;DHT22;3178;48.730;8.990;2023-03-03T16:13:29;10.30;85.10
6291;DHT22;3178;48.730;8.990;2023-03-03T16:18:36;10.10;86.30
6291;DHT22;3178;48.730;8.990;2023-03-03T16:21:20;10.20;86.00
6291;DHT22;3178;48.730;8.990;2023-03-03T16:23:54;10.10;86.00
6291;DHT22;3178;48.730;8.990;2023-03-03T16:29:36;10.00;86.90
6291;DHT22;3178;48.730;8.990;2023-03-03T16:32:36;9.80;88.10
6291;DHT22;3178;48.730;8.990;2023-03-03T16:35:35;9.80;87.80
6291;DHT22;3178;48.730;8.990;2023-03-03T16:38:38;9.70;89.00
6291;DHT22;3178;48.730;8.990;2023-03-03T16:41:25;9.60;89.30
6291;DHT22;3178;48.730;8.990;2023-03-03T16:46:34;9.50;90.00
6291;DHT22;3178;48.730;8.990;2023-03-03T16:54:32;9.30;90.40
6291;DHT22;3178;48.730;8.990;2023-03-03T16:57:40;9.20;90.50
6291;DHT22;3178;48.730;8.990;2023-03-03T17:00:20;9.10;90.80
6291;DHT22;3178;48.730;8.990;2023-03-03T17:05:35;8.90;91.10
6291;DHT22;3178;48.730;8.990;2023-03-03T17:08:26;8.80;91.10
6291;DHT22;3178;48.730;8.990;2023-03-03T17:11:25;8.70;91.30
6291;DHT22;3178;48.730;8.990;2023-03-03T17:16:50;8.50;91.60
6291;DHT22;3178;48.730;8.990;2023-03-03T17:30:33;7.90;92.40
6291;DHT22;3178;48.730;8.990;2023-03-03T17:38:37;7.60;93.00
6291;DHT22;3178;48.730;8.990;2023-03-03T17:46:46;7.30;94.20
6291;DHT22;3178;48.730;8.990;2023-03-03T17:54:57;7.00;94.90
6291;DHT22;3178;48.730;8.990;2023-03-03T18:03:13;6.70;95.80
6291;DHT22;3178;48.730;8.990;2023-03-03T18:06:23;6.60;96.10
6291;DHT22;3178;48.730;8.990;2023-03-03T18:17:32;6.30;97.80
6291;DHT22;3178;48.730;8.990;2023-03-03T18:22:51;6.10;98.90
6291;DHT22;3178;48.730;8.990;2023-03-03T18:25:22;6.00;99.40
6291;DHT22;3178;48.730;8.990;2023-03-03T18:30:28;5.90;99.90
6291;DHT22;3178;48.730;8.990;2023-03-03T18:41:04;5.60;99.90
6291;DHT22;3178;48.730;8.990;2023-03-03T18:51:47;5.50;99.90
6291;DHT22;3178;48.730;8.990;2023-03-03T19:05:21;5.10;99.90
6291;DHT22;3178;48.730;8.990;2023-03-03T19:10:56;5.00;99.90
6291;DHT22;3178;48.730;8.990;2023-03-03T19:16:08;4.90;99.90
6291;DHT22;3178;48.730;8.990;2023-03-03T19:21:24;4.80;99.90
6291;DHT22;3178;48.730;8.990;2023-03-03T19:23:53;4.80;99.90
6291;DHT22;3178;48.730;8.990;2023-03-03T19:37:57;4.50;99.90
6291;DHT22;3178;48.730;8.990;2023-03-03T19:43:38;4.40;99.90
6291;DHT22;3178;48.730;8.990;2023-03-03T19:46:46;4.40;99.90
6291;DHT22;3178;48.730;8.990;2023-03-03T19:52:36;4.30;99.90
6291;DHT22;3178;48.730;8.990;2023-03-03T19:55:21;4.20;99.90
6291;DHT22;3178;48.730;8.990;2023-03-03T19:57:56;4.20;99.90
6291;DHT22;3178;48.730;8.990;2023-03-03T20:03:18;4.10;99.90
6291;DHT22;3178;48.730;8.990;2023-03-03T20:11:41;4.00;99.90
6291;DHT22;3178;48.730;8.990;2023-03-03T20:14:43;3.90;99.90
6291;DHT22;3178;48.730;8.990;2023-03-03T20:19:57;3.90;99.90
6291;DHT22;3178;48.730;8.990;2023-03-03T20:22:42;3.80;99.90
6291;DHT22;3178;48.730;8.990;2023-03-03T20:25:28;3.80;99.90
6291;DHT22;3178;48.730;8.990;2023-03-03T20:28:34;3.80;99.90
6291;DHT22;3178;48.730;8.990;2023-03-03T20:31:18;3.70;99.90
6291;DHT22;3178;48.730;8.990;2023-03-03T20:41:49;3.60;99.90
6291;DHT22;3178;48.730;8.990;2023-03-03T20:44:57;3.60;99.90
6291;DHT22;3178;48.730;8.990;2023-03-03T20:50:25;3.50;99.90
6291;DHT22;3178;48.730;8.990;2023-03-03T20:52:55;3.40;99.90
6291;DHT22;3178;48.730;8.990;2023-03-03T21:03:48;3.30;99.90
6291;DHT22;3178;48.730;8.990;2023-03-03T21:06:17;3.30;99.90
6291;DHT22;3178;48.730;8.990;2023-03-03T21:08:54;3.30;99.90
6291;DHT22;3178;48.730;8.990;2023-03-03T21:11:23;3.30;99.90
6291;DHT22;3178;48.730;8.990;2023-03-03T21:13:51;3.30;99.90
6291;DHT22;3178;48.730;8.990;2023-03-03T21:19:32;3.20;99.90
6291;DHT22;3178;48.730;8.990;2023-03-03T21:21:59;3.20;99.90
6291;DHT22;3178;48.730;8.990;2023-03-03T21:24:55;3.10;99.90
6291;DHT22;3178;48.730;8.990;2023-03-03T21:27:33;3.10;99.90
6291;DHT22;3178;48.730;8.990;2023-03-03T21:32:37;3.00;99.90
6291;DHT22;3178;48.730;8.990;2023-03-03T21:35:05;3.00;99.90
6291;DHT22;3178;48.730;8.990;2023-03-03T21:37:49;3.00;99.90
6291;DHT22;3178;48.730;8.990;2023-03-03T21:40:19;2.90;99.90
6291;DHT22;3178;48.730;8.990;2023-03-03T21:42:48;2.90;99.90
6291;DHT22;3178;48.730;8.990;2023-03-03T21:45:14;2.90;99.90
6291;DHT22;3178;48.730;8.990;2023-03-03T21:47:41;2.90;99.90
6291;DHT22;3178;48.730;8.990;2023-03-03T21:50:08;2.80;99.90
6291;DHT22;3178;48.730;8.990;2023-03-03T21:52:33;2.80;99.90
6291;DHT22;3178;48.730;8.990;2023-03-03T21:54:59;2.80;99.90
6291;DHT22;3178;48.730;8.990;2023-03-03T21:57:25;2.70;99.90
6291;DHT22;3178;48.730;8.990;2023-03-03T21:59:51;2.80;99.90
6291;DHT22;3178;48.730;8.990;2023-03-03T22:02:17;2.70;99.90
6291;DHT22;3178;48.730;8.990;2023-03-03T22:04:43;2.70;99.90
6291;DHT22;3178;48.730;8.990;2023-03-03T22:07:09;2.60;99.90
6291;DHT22;3178;48.730;8.990;2023-03-03T22:09:35;2.60;99.90
6291;DHT22;3178;48.730;8.990;2023-03-03T22:12:01;2.60;99.90
6291;DHT22;3178;48.730;8.990;2023-03-03T22:14:27;2.60;99.90
6291;DHT22;3178;48.730;8.990;2023-03-03T22:16:52;2.60;99.90
6291;DHT22;3178;48.730;8.990;2023-03-03T22:19:18;2.50;99.90
6291;DHT22;3178;48.730;8.990;2023-03-03T22:21:43;2.50;99.90
6291;DHT22;3178;48.730;8.990;2023-03-03T22:24:11;2.50;99.90
6291;DHT22;3178;48.730;8.990;2023-03-03T22:26:36;2.50;99.90
6291;DHT22;3178;48.730;8.990;2023-03-03T22:29:02;2.50;99.90
6291;DHT22;3178;48.730;8.990;2023-03-03T22:31:28;2.50;99.90
6291;DHT22;3178;48.730;8.990;2023-03-03T22:33:53;2.50;99.90
6291;DHT22;3178;48.730;8.990;2023-03-03T22:36:19;2.40;99.90
6291;DHT22;3178;48.730;8.990;2023-03-03T22:38:45;2.40;99.90
6291;DHT22;3178;48.730;8.990;2023-03-03T22:41:11;2.40;99.90
6291;DHT22;3178;48.730;8.990;2023-03-03T22:43:37;2.40;99.90